createdAt,value
2017-10-18T00:01:09.656Z,14.69
2017-10-18T00:06:47.935Z,14.62
2017-10-18T00:09:23.165Z,14.65
2017-10-18T00:11:58.735Z,14.62
2017-10-18T00:14:33.591Z,14.62
2017-10-18T00:17:09.115Z,14.57
2017-10-18T00:19:43.759Z,14.51
2017-10-18T00:22:20.394Z,14.54
2017-10-18T00:24:55.815Z,14.64
2017-10-18T00:27:30.428Z,14.68
2017-10-18T00:30:05.969Z,14.66
2017-10-18T00:32:41.443Z,14.70
2017-10-18T00:35:16.074Z,14.80
2017-10-18T00:37:51.807Z,14.97
2017-10-18T00:40:28.663Z,15.32
2017-10-18T00:43:04.053Z,15.74
2017-10-18T00:45:39.242Z,16.02
2017-10-18T00:48:14.720Z,15.99
2017-10-18T00:50:49.794Z,15.90
2017-10-18T00:53:24.492Z,15.78
2017-10-18T00:55:59.337Z,15.64
2017-10-18T00:58:36.359Z,15.50
2017-10-18T01:01:11.739Z,15.39
2017-10-18T01:03:47.226Z,15.32
2017-10-18T01:06:21.987Z,15.29
2017-10-18T01:08:56.656Z,15.34
2017-10-18T01:11:31.481Z,15.46
2017-10-18T01:14:06.148Z,15.68
2017-10-18T01:16:40.776Z,16.10
2017-10-18T01:19:16.288Z,16.42
2017-10-18T01:21:51.155Z,16.52
2017-10-18T01:24:25.672Z,16.50
2017-10-18T01:27:00.257Z,16.43
2017-10-18T01:29:35.056Z,16.47
2017-10-18T01:32:09.646Z,16.51
2017-10-18T01:34:46.787Z,16.52
2017-10-18T01:37:21.493Z,16.62
2017-10-18T01:39:57.484Z,16.90
2017-10-18T01:42:32.228Z,17.07
2017-10-18T01:45:13.285Z,17.20
2017-10-18T01:47:48.425Z,17.31
2017-10-18T01:50:25.345Z,17.42
2017-10-18T01:53:00.662Z,17.55
2017-10-18T01:55:36.809Z,17.59
2017-10-18T01:58:13.798Z,17.67
2017-10-18T02:00:48.426Z,17.69
2017-10-18T02:06:21.017Z,17.56
2017-10-18T02:08:55.776Z,17.56
2017-10-18T02:11:30.453Z,17.63
2017-10-18T02:14:05.008Z,17.71
2017-10-18T02:16:40.783Z,17.71
2017-10-18T02:19:31.006Z,17.57
2017-10-18T02:22:06.467Z,17.42
2017-10-18T02:24:41.901Z,17.34
2017-10-18T02:27:16.959Z,17.27
2017-10-18T02:29:52.423Z,17.08
2017-10-18T02:32:27.963Z,17.01
2017-10-18T02:35:02.862Z,16.93
2017-10-18T02:37:37.499Z,16.82
2017-10-18T02:40:12.112Z,16.69
2017-10-18T02:42:48.874Z,16.55
2017-10-18T02:45:24.152Z,16.42
2017-10-18T02:47:59.438Z,16.33
2017-10-18T02:50:34.109Z,16.26
2017-10-18T02:53:09.096Z,16.23
2017-10-18T02:55:43.742Z,16.20
2017-10-18T02:58:18.409Z,16.15
2017-10-18T03:00:53.096Z,16.14
2017-10-18T03:03:30.649Z,16.12
2017-10-18T03:06:05.864Z,16.12
2017-10-18T03:08:40.498Z,16.13
2017-10-18T03:11:14.985Z,16.16
2017-10-18T03:13:49.550Z,16.12
2017-10-18T03:16:26.178Z,16.13
2017-10-18T03:19:02.410Z,16.15
2017-10-18T03:21:37.290Z,16.14
2017-10-18T03:24:12.965Z,16.12
2017-10-18T03:26:47.693Z,16.08
2017-10-18T03:29:24.399Z,16.10
2017-10-18T03:31:59.603Z,16.09
2017-10-18T03:34:34.164Z,16.05
2017-10-18T03:37:09.068Z,16.06
2017-10-18T03:39:43.961Z,16.04
2017-10-18T03:42:19.216Z,16.01
2017-10-18T03:44:56.234Z,15.98
2017-10-18T03:47:30.757Z,15.91
2017-10-18T03:50:06.058Z,15.87
2017-10-18T03:52:40.532Z,15.72
2017-10-18T03:55:17.149Z,15.62
2017-10-18T03:57:52.261Z,15.63
2017-10-18T04:00:19.986Z,15.64
2017-10-18T04:05:58.280Z,15.70
2017-10-18T04:08:32.900Z,15.65
2017-10-18T04:11:13.815Z,15.60
2017-10-18T04:13:40.591Z,15.59
2017-10-18T04:16:15.170Z,15.64
2017-10-18T04:18:50.464Z,15.66
2017-10-18T04:21:28.706Z,15.62
2017-10-18T04:24:05.989Z,15.56
2017-10-18T04:26:43.180Z,15.43
2017-10-18T04:29:17.695Z,15.28
2017-10-18T04:31:53.144Z,15.12
2017-10-18T04:34:28.131Z,15.03
2017-10-18T04:37:02.680Z,15.00
2017-10-18T04:39:37.527Z,15.06
2017-10-18T04:42:04.378Z,15.15
2017-10-18T04:44:47.953Z,15.28
2017-10-18T04:47:22.473Z,15.35
2017-10-18T04:49:57.381Z,15.37
2017-10-18T04:52:31.927Z,15.35
2017-10-18T04:55:06.953Z,15.31
2017-10-18T04:57:43.825Z,15.31
2017-10-18T05:00:18.951Z,15.34
2017-10-18T05:02:56.008Z,15.41
2017-10-18T05:05:30.841Z,15.49
2017-10-18T05:08:05.892Z,15.56
2017-10-18T05:10:40.983Z,15.67
2017-10-18T05:13:15.804Z,15.77
2017-10-18T05:15:50.606Z,15.81
2017-10-18T05:18:29.898Z,15.86
2017-10-18T05:21:05.347Z,15.97
2017-10-18T05:23:41.373Z,16.05
2017-10-18T05:26:15.997Z,16.13
2017-10-18T05:28:52.402Z,16.24
2017-10-18T05:31:26.966Z,16.34
2017-10-18T05:34:02.081Z,16.50
2017-10-18T05:36:37.253Z,16.62
2017-10-18T05:39:12.229Z,16.76
2017-10-18T05:41:47.411Z,16.94
2017-10-18T05:44:23.766Z,17.14
2017-10-18T05:46:58.699Z,17.35
2017-10-18T05:49:34.455Z,17.54
2017-10-18T05:52:09.304Z,17.67
2017-10-18T05:54:44.862Z,17.83
2017-10-18T05:57:19.276Z,18.02
2017-10-18T05:59:54.889Z,18.28
2017-10-18T06:02:30.970Z,18.59
2017-10-18T06:04:57.810Z,19.05
2017-10-18T06:07:32.877Z,19.58
2017-10-18T06:10:10.731Z,19.95
2017-10-18T06:12:46.089Z,20.18
2017-10-18T06:15:20.665Z,20.31
2017-10-18T06:17:55.244Z,20.36
2017-10-18T06:20:31.034Z,20.29
2017-10-18T06:23:06.289Z,20.24
2017-10-18T06:25:43.720Z,20.21
2017-10-18T06:31:28.948Z,20.24
2017-10-18T06:34:03.557Z,20.18
2017-10-18T06:39:24.241Z,20.22
2017-10-18T06:41:59.268Z,20.22
2017-10-18T06:44:34.632Z,20.25
2017-10-18T06:47:10.401Z,20.31
2017-10-18T06:49:45.625Z,20.34
2017-10-18T06:52:21.051Z,20.36
2017-10-18T06:54:56.400Z,20.40
2017-10-18T06:57:31.917Z,20.41
2017-10-18T07:00:06.399Z,20.46
2017-10-18T07:02:42.917Z,20.53
2017-10-18T07:05:17.362Z,20.58
2017-10-18T07:07:51.915Z,20.64
2017-10-18T07:10:27.401Z,20.59
2017-10-18T07:13:01.901Z,20.47
2017-10-18T07:15:37.464Z,20.58
2017-10-18T07:18:13.971Z,20.61
2017-10-18T07:20:49.449Z,20.51
2017-10-18T07:23:24.955Z,20.61
2017-10-18T07:26:00.404Z,20.73
2017-10-18T07:28:35.945Z,20.62
2017-10-18T07:31:11.292Z,20.60
2017-10-18T07:33:45.780Z,20.61
2017-10-18T07:36:21.182Z,20.74
2017-10-18T07:38:56.671Z,20.84
2017-10-18T07:41:32.042Z,20.89
2017-10-18T07:44:10.143Z,21.00
2017-10-18T07:46:45.053Z,21.13
2017-10-18T07:49:20.249Z,21.07
2017-10-18T07:51:55.249Z,20.97
2017-10-18T07:54:31.625Z,20.86
2017-10-18T07:57:06.398Z,20.94
2017-10-18T07:59:43.899Z,21.08
2017-10-18T08:02:19.441Z,21.17
2017-10-18T08:04:46.255Z,21.29
2017-10-18T08:07:21.334Z,21.27
2017-10-18T08:10:02.136Z,21.19
2017-10-18T08:12:37.487Z,21.26
2017-10-18T08:15:12.105Z,21.10
2017-10-18T08:17:47.602Z,20.91
2017-10-18T08:20:25.242Z,20.87
2017-10-18T08:23:00.640Z,20.86
2017-10-18T08:25:40.956Z,20.84
2017-10-18T08:28:15.626Z,20.84
2017-10-18T08:30:50.319Z,20.82
2017-10-18T08:33:25.824Z,20.88
2017-10-18T08:36:01.367Z,20.98
2017-10-18T08:38:36.699Z,21.15
2017-10-18T08:41:11.413Z,21.19
2017-10-18T08:43:46.238Z,21.21
2017-10-18T08:46:22.060Z,21.26
2017-10-18T08:48:56.729Z,21.25
2017-10-18T08:51:33.344Z,21.20
2017-10-18T08:54:08.014Z,21.31
2017-10-18T08:56:46.127Z,21.40
2017-10-18T08:59:21.098Z,21.24
2017-10-18T09:01:55.988Z,21.15
2017-10-18T09:04:30.491Z,21.23
2017-10-18T09:07:05.275Z,21.25
2017-10-18T09:09:39.914Z,21.37
2017-10-18T09:12:15.317Z,21.44
2017-10-18T09:14:51.929Z,21.54
2017-10-18T09:17:30.018Z,21.70
2017-10-18T09:20:04.910Z,21.86
2017-10-18T09:22:39.329Z,21.88
2017-10-18T09:25:13.952Z,22.00
2017-10-18T09:27:49.381Z,21.99
2017-10-18T09:30:24.757Z,21.91
2017-10-18T09:33:00.143Z,21.90
2017-10-18T09:35:34.714Z,21.87
2017-10-18T09:38:09.691Z,21.92
2017-10-18T09:40:44.955Z,21.84
2017-10-18T09:43:19.601Z,21.85
2017-10-18T09:45:56.967Z,21.84
2017-10-18T09:48:32.830Z,21.93
2017-10-18T09:51:07.854Z,21.86
2017-10-18T09:53:44.962Z,21.80
2017-10-18T09:56:20.099Z,21.73
2017-10-18T09:58:56.389Z,21.54
2017-10-18T10:01:31.759Z,21.59
2017-10-18T10:07:03.364Z,21.69
2017-10-18T10:09:37.963Z,21.69
2017-10-18T10:12:13.485Z,21.68
2017-10-18T10:14:48.827Z,21.57
2017-10-18T10:17:23.459Z,21.53
2017-10-18T10:19:58.984Z,21.63
2017-10-18T10:22:35.332Z,21.66
2017-10-18T10:25:10.012Z,21.63
2017-10-18T10:27:47.530Z,21.74
2017-10-18T10:30:23.027Z,21.77
2017-10-18T10:32:58.959Z,21.71
2017-10-18T10:35:34.162Z,21.59
2017-10-18T10:38:10.223Z,21.65
2017-10-18T10:40:45.095Z,21.69
2017-10-18T10:43:21.238Z,21.72
2017-10-18T10:45:55.806Z,21.71
2017-10-18T10:48:30.478Z,21.71
2017-10-18T10:51:05.696Z,21.58
2017-10-18T10:53:40.236Z,21.50
2017-10-18T10:56:14.801Z,21.54
2017-10-18T10:58:49.456Z,21.31
2017-10-18T11:01:24.865Z,21.40
2017-10-18T11:04:00.507Z,21.41
2017-10-18T11:06:35.162Z,21.44
2017-10-18T11:09:09.656Z,21.40
2017-10-18T11:11:45.072Z,21.32
2017-10-18T11:14:20.552Z,21.33
2017-10-18T11:16:54.988Z,21.38
2017-10-18T11:19:36.641Z,21.44
2017-10-18T11:22:11.221Z,21.44
2017-10-18T11:27:21.255Z,21.20
2017-10-18T11:29:55.845Z,21.19
2017-10-18T11:32:31.270Z,21.02
2017-10-18T11:35:05.986Z,20.83
2017-10-18T11:37:40.780Z,20.82
2017-10-18T11:40:16.410Z,20.88
2017-10-18T11:42:52.488Z,20.86
2017-10-18T11:45:29.739Z,20.81
2017-10-18T11:48:04.630Z,20.69
2017-10-18T11:50:40.252Z,20.53
2017-10-18T11:53:14.853Z,20.48
2017-10-18T11:55:49.371Z,20.50
2017-10-18T11:58:24.752Z,20.55
2017-10-18T12:00:59.427Z,20.45
2017-10-18T12:03:26.228Z,20.41
2017-10-18T12:06:01.462Z,20.23
2017-10-18T12:08:36.748Z,20.17
2017-10-18T12:11:13.438Z,20.19
2017-10-18T12:13:48.538Z,20.32
2017-10-18T12:16:25.758Z,20.39
2017-10-18T12:19:00.592Z,20.45
2017-10-18T12:21:37.156Z,20.34
2017-10-18T12:24:11.637Z,20.21
2017-10-18T12:26:48.712Z,20.13
2017-10-18T12:29:24.044Z,20.18
2017-10-18T12:32:01.752Z,20.19
2017-10-18T12:34:37.068Z,20.17
2017-10-18T12:37:14.242Z,20.05
2017-10-18T12:39:49.347Z,20.12
2017-10-18T12:42:23.964Z,20.19
2017-10-18T12:44:58.711Z,20.15
2017-10-18T12:47:33.242Z,20.24
2017-10-18T12:50:08.647Z,20.23
2017-10-18T12:52:44.727Z,20.19
2017-10-18T12:55:21.777Z,20.10
2017-10-18T12:57:58.371Z,20.16
2017-10-18T13:00:35.485Z,20.19
2017-10-18T13:03:10.045Z,20.23
2017-10-18T13:05:45.405Z,20.24
2017-10-18T13:08:20.870Z,20.28
2017-10-18T13:10:56.285Z,20.19
2017-10-18T13:13:32.730Z,20.11
2017-10-18T13:16:07.242Z,19.98
2017-10-18T13:18:42.174Z,19.91
2017-10-18T13:21:17.483Z,19.88
2017-10-18T13:23:52.454Z,19.72
2017-10-18T13:26:26.934Z,19.80
2017-10-18T13:29:01.499Z,19.77
2017-10-18T13:31:36.125Z,19.63
2017-10-18T13:34:11.570Z,19.64
2017-10-18T13:36:46.239Z,19.54
2017-10-18T13:39:22.757Z,19.62
2017-10-18T13:41:58.388Z,19.61
2017-10-18T13:44:35.681Z,19.51
2017-10-18T13:47:11.657Z,19.47
2017-10-18T13:49:48.306Z,19.35
2017-10-18T13:52:23.659Z,19.36
2017-10-18T13:54:58.322Z,19.33
2017-10-18T13:57:32.862Z,19.21
2017-10-18T14:00:08.299Z,19.17
2017-10-18T14:02:48.041Z,18.93
2017-10-18T14:05:14.867Z,18.61
2017-10-18T14:07:50.041Z,18.52
2017-10-18T14:10:25.745Z,18.31
2017-10-18T14:13:00.665Z,18.22
2017-10-18T14:15:35.218Z,18.47
2017-10-18T14:18:09.676Z,18.52
2017-10-18T14:20:44.357Z,18.45
2017-10-18T14:23:19.867Z,18.48
2017-10-18T14:25:54.405Z,18.59
2017-10-18T14:28:29.044Z,18.60
2017-10-18T14:31:08.104Z,18.52
2017-10-18T14:33:43.112Z,18.42
2017-10-18T14:36:19.268Z,18.13
2017-10-18T14:38:53.885Z,18.28
2017-10-18T14:41:28.409Z,18.28
2017-10-18T14:44:03.773Z,18.17
2017-10-18T14:46:41.044Z,18.05
2017-10-18T14:49:16.303Z,17.94
2017-10-18T14:51:53.362Z,17.88
2017-10-18T14:54:30.292Z,17.98
2017-10-18T14:57:08.675Z,18.03
2017-10-18T14:59:43.266Z,17.97
2017-10-18T15:02:18.488Z,17.66
2017-10-18T15:04:53.468Z,17.70
2017-10-18T15:07:28.754Z,17.67
2017-10-18T15:10:04.360Z,17.64
2017-10-18T15:12:41.702Z,17.49
2017-10-18T15:15:16.342Z,17.47
2017-10-18T15:17:51.168Z,17.31
2017-10-18T15:20:25.767Z,17.31
2017-10-18T15:23:01.231Z,17.21
2017-10-18T15:25:37.822Z,17.10
2017-10-18T15:28:15.606Z,16.95
2017-10-18T15:30:50.481Z,16.84
2017-10-18T15:33:40.308Z,16.78
2017-10-18T15:36:15.267Z,16.73
2017-10-18T15:38:51.033Z,16.68
2017-10-18T15:41:26.362Z,16.71
2017-10-18T15:44:02.927Z,16.67
2017-10-18T15:46:38.400Z,16.62
2017-10-18T15:49:14.626Z,16.62
2017-10-18T15:51:49.473Z,16.58
2017-10-18T15:54:28.410Z,16.56
2017-10-18T15:57:05.509Z,16.47
2017-10-18T15:59:41.009Z,16.42
2017-10-18T16:02:07.767Z,16.31
2017-10-18T16:04:35.470Z,16.29
2017-10-18T16:07:13.328Z,16.32
2017-10-18T16:09:48.229Z,16.36
2017-10-18T16:12:25.484Z,16.35
2017-10-18T16:15:10.094Z,16.36
2017-10-18T16:17:45.583Z,16.38
2017-10-18T16:20:20.240Z,16.37
2017-10-18T16:22:54.877Z,16.35
2017-10-18T16:25:29.504Z,16.35
2017-10-18T16:28:04.348Z,16.18
2017-10-18T16:30:38.876Z,16.16
2017-10-18T16:33:13.694Z,16.19
2017-10-18T16:35:57.890Z,16.29
2017-10-18T16:38:42.093Z,16.36
2017-10-18T16:41:17.376Z,16.34
2017-10-18T16:44:00.787Z,16.32
2017-10-18T16:46:40.317Z,16.30
2017-10-18T16:49:15.900Z,16.27
2017-10-18T16:51:53.240Z,16.22
2017-10-18T16:54:28.824Z,16.17
2017-10-18T16:57:19.008Z,16.14
2017-10-18T16:59:55.897Z,16.10
2017-10-18T17:02:31.425Z,16.09
2017-10-18T17:05:07.642Z,16.09
2017-10-18T17:07:42.440Z,16.10
2017-10-18T17:10:23.430Z,16.09
2017-10-18T17:13:00.117Z,16.02
2017-10-18T17:15:35.921Z,15.97
2017-10-18T17:18:16.121Z,15.90
2017-10-18T17:20:52.941Z,15.86
2017-10-18T17:23:27.536Z,15.82
2017-10-18T17:26:03.315Z,15.72
2017-10-18T17:28:38.465Z,15.64
2017-10-18T17:31:14.949Z,15.50
2017-10-18T17:33:51.700Z,15.44
2017-10-18T17:36:28.064Z,15.42
2017-10-18T17:39:02.762Z,15.34
2017-10-18T17:41:38.322Z,15.33
2017-10-18T17:44:13.842Z,15.33
2017-10-18T17:46:51.567Z,15.36
2017-10-18T17:49:18.481Z,15.31
2017-10-18T17:51:45.411Z,15.29
2017-10-18T17:54:32.497Z,15.27
2017-10-18T17:56:59.157Z,15.25
2017-10-18T17:59:44.982Z,15.29
2017-10-18T18:02:20.326Z,15.28
2017-10-18T18:04:48.125Z,15.29
2017-10-18T18:07:28.202Z,15.29
2017-10-18T18:10:04.280Z,15.10
2017-10-18T18:12:39.820Z,15.05
2017-10-18T18:15:19.827Z,15.05
2017-10-18T18:17:54.784Z,15.05
2017-10-18T18:20:37.525Z,15.07
2017-10-18T18:23:12.082Z,15.06
2017-10-18T18:28:39.238Z,15.11
2017-10-18T18:33:58.888Z,15.13
2017-10-18T18:36:39.348Z,15.10
2017-10-18T18:39:18.455Z,15.10
2017-10-18T18:42:01.204Z,15.10
2017-10-18T18:44:51.699Z,15.08
2017-10-18T18:47:36.665Z,15.03
2017-10-18T18:50:03.568Z,14.95
2017-10-18T18:52:43.867Z,14.89
2017-10-18T18:55:21.103Z,14.86
2017-10-18T18:58:11.767Z,14.81
2017-10-18T19:00:48.941Z,14.78
2017-10-18T19:03:25.302Z,14.72
2017-10-18T19:06:00.898Z,14.64
2017-10-18T19:08:40.409Z,14.56
2017-10-18T19:11:07.251Z,14.51
2017-10-18T19:16:27.562Z,14.42
2017-10-18T19:19:15.003Z,14.37
2017-10-18T19:21:52.048Z,14.34
2017-10-18T19:27:16.288Z,14.17
2017-10-18T19:30:04.985Z,14.16
2017-10-18T19:32:39.725Z,14.17
2017-10-18T19:35:16.555Z,14.18
2017-10-18T19:37:53.374Z,14.13
2017-10-18T19:40:30.730Z,14.09
2017-10-18T19:43:06.348Z,14.07
2017-10-18T19:48:32.279Z,14.00
2017-10-18T19:54:06.514Z,13.91
2017-10-18T19:56:49.144Z,13.78
2017-10-18T19:59:15.949Z,13.79
2017-10-18T20:01:42.902Z,13.81
